Time;durP1;ratioP1;P1;durP2;ratioP2;P2;SDS_P1;SDS_P2;PMS_P1;PMS_P2;Temp;Humidity;BMP_temperature;BMP_pressure;BME280_temperature;BME280_humidity;BME280_pressure;Samples;Min_cycle;Max_cycle;Signal;HPM_P1;HPM_P2
2023/03/21 00:00:21;;;;;;;27.70;11.70;;;;;;;8.67;100.00;100494.30;217475;1289;139438;-89
2023/03/21 00:05:21;;;;;;;25.90;13.00;;;;;;;8.66;100.00;100497.73;217976;1288;139047;-89
2023/03/21 00:10:22;;;;;;;23.80;10.90;;;;;;;8.64;100.00;100498.09;217412;1288;140764;-88
2023/03/21 00:15:28;;;;;;;24.70;11.70;;;;;;;8.62;100.00;100497.11;217898;1288;139177;-89
2023/03/21 00:20:33;;;;;;;23.60;11.70;;;;;;;8.62;100.00;100494.20;217406;1289;139747;-89
2023/03/21 00:25:33;;;;;;;23.50;11.20;;;;;;;8.59;100.00;100491.09;217894;1289;139420;-89
2023/03/21 00:30:34;;;;;;;23.00;9.90;;;;;;;8.56;100.00;100488.77;217497;1288;139402;-89
2023/03/21 00:35:34;;;;;;;22.70;12.40;;;;;;;8.53;100.00;100488.46;217964;1288;138747;-89
2023/03/21 00:40:34;;;;;;;24.00;10.50;;;;;;;8.51;100.00;100493.28;217395;1288;139610;-90
2023/03/21 00:45:36;;;;;;;24.60;11.70;;;;;;;8.50;100.00;100485.35;217951;1289;139042;-89
2023/03/21 00:50:37;;;;;;;23.20;11.10;;;;;;;8.50;100.00;100488.24;217372;1289;139984;-89
2023/03/21 00:55:38;;;;;;;22.10;10.50;;;;;;;8.49;100.00;100492.62;217857;1288;138941;-91
2023/03/21 01:00:38;;;;;;;23.10;10.80;;;;;;;8.50;100.00;100493.64;217440;1288;140292;-89
2023/03/21 01:06:04;;;;;;;23.60;11.20;;;;;;;8.48;100.00;100488.05;217949;1289;139092;-89
2023/03/21 01:11:07;;;;;;;21.40;10.70;;;;;;;8.47;100.00;100496.32;217386;1288;139921;-90
2023/03/21 01:16:09;;;;;;;23.60;11.40;;;;;;;8.44;100.00;100492.66;217866;1289;139100;-89
2023/03/21 01:21:12;;;;;;;21.60;10.90;;;;;;;8.42;100.00;100490.73;217457;1289;139884;-89
2023/03/21 01:26:14;;;;;;;19.00;9.50;;;;;;;8.39;100.00;100490.43;217890;1289;139266;-88
2023/03/21 01:31:16;;;;;;;18.80;9.50;;;;;;;8.37;100.00;100489.70;217456;1291;139853;-88
2023/03/21 01:36:20;;;;;;;20.80;10.70;;;;;;;8.35;100.00;100491.55;217875;1288;139602;-88
2023/03/21 01:41:28;;;;;;;21.60;11.00;;;;;;;8.34;100.00;100488.61;217331;1288;139870;-88
2023/03/21 01:46:40;;;;;;;20.50;10.50;;;;;;;8.31;100.00;100487.77;217888;1288;139528;-88
2023/03/21 01:51:47;;;;;;;20.60;10.30;;;;;;;8.28;100.00;100485.91;217339;1289;139585;-88
2023/03/21 01:56:47;;;;;;;18.80;9.40;;;;;;;8.26;100.00;100483.66;217910;1289;139252;-89
2023/03/21 02:01:50;;;;;;;22.30;11.30;;;;;;;8.22;100.00;100482.49;217311;1289;140221;-88
2023/03/21 02:06:56;;;;;;;22.20;10.30;;;;;;;8.20;100.00;100478.96;218074;1289;96349;-89
2023/03/21 02:11:57;;;;;;;24.00;10.80;;;;;;;8.18;100.00;100480.73;217326;1288;138973;-88
2023/03/21 02:17:25;;;;;;;19.60;9.90;;;;;;;8.14;100.00;100473.05;217899;1288;139592;-89
2023/03/21 02:22:26;;;;;;;19.60;10.70;;;;;;;8.07;100.00;100472.80;217369;1289;138967;-89
2023/03/21 02:27:30;;;;;;;18.80;9.80;;;;;;;8.03;100.00;100468.97;217974;1290;138971;-89
2023/03/21 02:32:40;;;;;;;20.40;10.40;;;;;;;8.00;100.00;100472.34;217360;1289;139395;-88
2023/03/21 02:37:47;;;;;;;21.70;10.30;;;;;;;7.97;100.00;100472.52;217926;1289;139332;-89
2023/03/21 02:43:07;;;;;;;;;;;;;;;7.96;100.00;100471.88;217467;1290;139664;-89
2023/03/21 02:48:13;;;;;;;19.30;9.20;;;;;;;7.94;100.00;100470.04;217863;1289;125387;-89
2023/03/21 02:53:18;;;;;;;20.60;10.70;;;;;;;7.93;100.00;100468.45;217346;1289;139685;-88
2023/03/21 02:58:22;;;;;;;21.40;10.60;;;;;;;7.92;100.00;100472.56;217876;1290;140076;-88
2023/03/21 03:03:23;;;;;;;18.80;10.00;;;;;;;7.90;100.00;100472.37;217443;1289;140540;-88
2023/03/21 03:08:32;;;;;;;20.00;9.80;;;;;;;7.88;100.00;100477.72;217963;1288;139868;-88
2023/03/21 03:13:49;;;;;;;19.00;10.00;;;;;;;7.87;100.00;100477.44;217391;1289;139978;-88
2023/03/21 03:18:55;;;;;;;21.90;10.10;;;;;;;7.83;100.00;100476.40;217446;1290;140440;-88
2023/03/21 03:24:15;;;;;;;21.80;9.90;;;;;;;7.78;100.00;100478.52;217850;1289;139173;-88
2023/03/21 03:29:18;;;;;;;21.10;10.50;;;;;;;7.76;100.00;100478.08;217418;1288;139766;-89
2023/03/21 03:34:22;;;;;;;19.20;9.70;;;;;;;7.75;100.00;100478.36;218037;1288;139173;-88
2023/03/21 03:39:32;;;;;;;20.30;9.80;;;;;;;7.70;100.00;100478.55;217394;1288;139371;-88
2023/03/21 03:44:34;;;;;;;22.50;11.60;;;;;;;7.68;100.00;100479.03;217732;1290;139805;-88
2023/03/21 03:49:59;;;;;;;24.60;11.40;;;;;;;7.66;100.00;100480.42;217420;1289;142866;-88
2023/03/21 03:55:00;;;;;;;20.20;11.50;;;;;;;7.65;100.00;100487.03;217996;1289;104362;-88
2023/03/21 04:00:01;;;;;;;20.20;10.20;;;;;;;7.63;100.00;100489.17;217438;1289;139709;-88
2023/03/21 04:05:03;;;;;;;27.40;11.00;;;;;;;7.61;100.00;100486.17;217960;1289;139252;-88
2023/03/21 04:10:04;;;;;;;21.80;10.50;;;;;;;7.59;100.00;100493.24;217217;1289;280878;-88
2023/03/21 04:15:05;;;;;;;20.20;11.00;;;;;;;7.59;100.00;100495.34;217962;1288;139528;-88
2023/03/21 04:20:09;;;;;;;22.40;11.40;;;;;;;7.58;100.00;100494.84;217416;1289;140238;-88
2023/03/21 04:25:10;;;;;;;22.30;11.00;;;;;;;7.55;100.00;100493.60;218098;1289;96582;-88
2023/03/21 04:30:11;;;;;;;21.50;10.70;;;;;;;7.52;100.00;100497.68;217511;1289;139768;-89
2023/03/21 04:35:11;;;;;;;24.30;11.70;;;;;;;7.50;100.00;100498.56;217901;1291;139472;-88
2023/03/21 04:40:16;;;;;;;21.60;11.20;;;;;;;7.48;100.00;100504.70;217442;1289;139338;-88
2023/03/21 04:45:17;;;;;;;21.30;10.00;;;;;;;7.48;100.00;100511.81;217913;1289;139083;-88
2023/03/21 04:50:17;;;;;;;19.80;10.50;;;;;;;7.48;100.00;100512.52;217509;1291;139522;-88
2023/03/21 04:55:20;;;;;;;19.80;11.10;;;;;;;7.49;100.00;100512.55;218008;1289;96160;-88
2023/03/21 05:00:22;;;;;;;21.90;11.30;;;;;;;7.48;100.00;100511.75;217498;1288;139642;-89
2023/03/21 05:05:23;;;;;;;24.10;12.00;;;;;;;7.49;100.00;100514.66;217901;1289;138913;-89
2023/03/21 05:10:24;;;;;;;24.20;12.20;;;;;;;7.50;100.00;100516.10;217417;1288;139156;-89
2023/03/21 05:15:24;;;;;;;22.30;11.10;;;;;;;7.50;100.00;100521.10;217950;1289;141955;-88
2023/03/21 05:20:25;;;;;;;24.30;12.40;;;;;;;7.51;100.00;100520.48;217396;1290;139317;-89
2023/03/21 05:25:33;;;;;;;24.60;11.90;;;;;;;7.52;100.00;100520.06;217982;1290;139024;-88
2023/03/21 05:30:34;;;;;;;22.50;11.80;;;;;;;7.54;100.00;100519.02;217518;1289;140300;-89
2023/03/21 05:35:34;;;;;;;24.80;12.80;;;;;;;7.56;100.00;100521.88;217969;1289;139410;-88
2023/03/21 05:40:34;;;;;;;25.30;12.90;;;;;;;7.59;100.00;100528.36;217395;1289;139634;-88
2023/03/21 05:45:35;;;;;;;24.00;12.00;;;;;;;7.61;100.00;100526.86;217989;1289;139187;-88
2023/03/21 05:50:37;;;;;;;22.20;11.10;;;;;;;7.64;100.00;100525.91;217416;1289;139904;-87
2023/03/21 05:55:38;;;;;;;24.50;12.10;;;;;;;7.67;100.00;100534.10;217917;1288;138973;-88
2023/03/21 06:00:39;;;;;;;23.40;12.20;;;;;;;7.69;100.00;100542.61;217464;1289;139451;-88
2023/03/21 06:05:39;;;;;;;25.60;13.50;;;;;;;7.73;100.00;100546.63;217963;1289;139360;-88
2023/03/21 06:10:40;;;;;;;24.70;14.10;;;;;;;7.77;100.00;100544.08;217410;1288;142268;-87
2023/03/21 06:15:40;;;;;;;24.70;13.00;;;;;;;7.80;100.00;100544.38;217926;1289;139105;-88
2023/03/21 06:20:40;;;;;;;26.90;13.60;;;;;;;7.83;100.00;100543.19;217423;1289;139183;-88
2023/03/21 06:25:41;;;;;;;28.50;14.00;;;;;;;7.88;100.00;100543.70;218008;1288;139570;-87
2023/03/21 06:30:41;;;;;;;28.20;13.20;;;;;;;7.93;100.00;100546.80;217548;1290;139500;-88
2023/03/21 06:35:42;;;;;;;23.90;12.70;;;;;;;7.97;100.00;100550.64;217962;1288;140480;-88
2023/03/21 06:40:45;;;;;;;28.00;13.00;;;;;;;7.99;100.00;100552.91;217463;1288;139676;-88
2023/03/21 06:45:45;;;;;;;27.10;13.40;;;;;;;8.02;100.00;100555.08;217886;1290;139229;-87
2023/03/21 06:50:48;;;;;;;26.80;13.20;;;;;;;8.07;100.00;100560.20;217435;1289;139641;-87
2023/03/21 06:55:50;;;;;;;25.80;12.30;;;;;;;8.14;100.00;100557.15;218011;1288;139033;-87
2023/03/21 07:00:50;;;;;;;26.70;14.40;;;;;;;8.21;100.00;100559.38;217464;1288;139597;-87
2023/03/21 07:05:52;;;;;;;24.00;12.80;;;;;;;8.27;100.00;100557.64;217994;1288;138868;-87
2023/03/21 07:10:56;;;;;;;26.90;13.00;;;;;;;8.34;100.00;100567.52;217425;1288;139539;-87
2023/03/21 07:15:57;;;;;;;28.50;13.70;;;;;;;8.45;100.00;100574.02;217864;1288;139760;-86
2023/03/21 07:20:57;;;;;;;25.60;13.00;;;;;;;8.54;100.00;100573.68;217374;1288;141181;-87
2023/03/21 07:25:58;;;;;;;29.50;14.50;;;;;;;8.62;100.00;100577.77;217951;1288;139079;-88
2023/03/21 07:31:04;;;;;;;26.10;14.10;;;;;;;8.72;100.00;100583.45;217491;1288;139455;-87
2023/03/21 07:36:11;;;;;;;31.20;15.60;;;;;;;8.83;100.00;100588.15;217886;1289;139015;-88
2023/03/21 07:41:12;;;;;;;32.10;16.60;;;;;;;8.95;100.00;100585.96;217174;1291;139729;-87
2023/03/21 07:46:12;;;;;;;27.30;15.20;;;;;;;9.08;100.00;100588.49;217966;1293;139007;-87
2023/03/21 07:51:13;;;;;;;29.90;14.70;;;;;;;9.17;100.00;100595.64;217411;1290;140503;-87
2023/03/21 07:56:14;;;;;;;32.30;15.20;;;;;;;9.24;100.00;100595.02;217929;1288;140638;-86
2023/03/21 08:01:15;;;;;;;26.10;14.50;;;;;;;9.32;100.00;100595.23;217476;1288;139815;-87
2023/03/21 08:06:15;;;;;;;27.60;15.30;;;;;;;9.43;100.00;100599.61;217988;1289;139498;-87
2023/03/21 08:11:16;;;;;;;23.80;14.10;;;;;;;9.52;100.00;100599.46;217502;1288;139159;-88
2023/03/21 08:16:17;;;;;;;26.80;14.60;;;;;;;9.68;100.00;100593.77;217759;1289;139043;-87
2023/03/21 08:21:18;;;;;;;27.50;14.50;;;;;;;9.80;100.00;100596.27;217428;1290;139486;-88
2023/03/21 08:26:18;;;;;;;27.60;15.50;;;;;;;9.97;100.00;100604.32;217877;1291;139162;-86
2023/03/21 08:31:20;;;;;;;25.70;13.80;;;;;;;10.12;100.00;100605.68;217438;1291;139749;-87
2023/03/21 08:36:22;;;;;;;22.90;13.40;;;;;;;10.19;100.00;100613.11;217995;1288;96421;-87
2023/03/21 08:41:24;;;;;;;26.10;14.40;;;;;;;10.23;100.00;100614.58;217299;1288;139480;-86
2023/03/21 08:46:25;;;;;;;25.30;14.70;;;;;;;10.30;100.00;100614.38;217856;1288;139384;-88
2023/03/21 08:51:26;;;;;;;22.00;14.10;;;;;;;10.37;100.00;100619.34;217399;1288;140292;-89
2023/03/21 08:56:26;;;;;;;26.70;14.60;;;;;;;10.49;100.00;100621.34;217879;1291;139381;-86
2023/03/21 09:01:26;;;;;;;25.70;14.50;;;;;;;10.61;100.00;100620.64;217237;1288;140435;-88
2023/03/21 09:06:28;;;;;;;24.90;16.00;;;;;;;10.75;100.00;100625.71;218017;1288;98053;-86
2023/03/21 09:11:29;;;;;;;27.40;16.40;;;;;;;10.92;99.77;100628.14;217295;1289;139740;-88
2023/03/21 09:16:30;;;;;;;27.60;15.30;;;;;;;11.04;100.00;100629.31;217952;1288;140055;-86
2023/03/21 09:21:30;;;;;;;30.30;18.60;;;;;;;11.28;100.00;100629.83;217299;1289;140024;-86
2023/03/21 09:26:32;;;;;;;23.90;15.60;;;;;;;11.45;98.89;100632.70;217918;1288;139420;-86
2023/03/21 09:31:32;;;;;;;25.00;14.80;;;;;;;11.45;97.98;100636.09;217228;1289;140615;-86
2023/03/21 09:36:34;;;;;;;27.50;16.60;;;;;;;11.53;99.17;100637.76;217967;1289;97659;-85
2023/03/21 09:42:03;;;;;;;25.00;15.50;;;;;;;11.75;98.96;100638.86;217250;1291;139840;-86
2023/03/21 09:47:12;;;;;;;27.70;16.10;;;;;;;11.91;97.91;100640.77;217832;1288;140826;-85
2023/03/21 09:52:49;;;;;;;24.90;15.00;;;;;;;12.01;97.17;100636.90;217345;1289;139523;-85
2023/03/21 09:57:59;;;;;;;25.00;15.30;;;;;;;12.21;97.34;100640.38;217868;1289;139502;-84
2023/03/21 10:03:06;;;;;;;22.30;15.20;;;;;;;12.44;96.72;100632.89;217358;1293;139392;-86
2023/03/21 10:08:21;;;;;;;29.20;16.90;;;;;;;12.48;94.61;100634.66;217819;1289;139460;-85
2023/03/21 10:13:26;;;;;;;28.10;15.60;;;;;;;12.55;92.79;100633.44;217258;1289;139780;-84
2023/03/21 10:18:29;;;;;;;27.90;17.00;;;;;;;12.66;92.30;100630.90;217899;1289;104870;-85
2023/03/21 10:23:30;;;;;;;26.50;16.00;;;;;;;12.74;92.21;100630.08;217421;1289;140470;-86
2023/03/21 10:28:36;;;;;;;24.10;14.80;;;;;;;12.86;91.94;100627.23;217856;1289;140302;-85
2023/03/21 10:33:43;;;;;;;26.40;16.00;;;;;;;12.90;91.15;100628.59;217268;1289;139865;-84
2023/03/21 10:38:47;;;;;;;19.40;12.10;;;;;;;12.92;90.60;100633.73;217240;1288;139404;-87
2023/03/21 10:44:10;;;;;;;25.20;14.10;;;;;;;12.89;88.76;100631.19;217820;1291;139229;-87
2023/03/21 10:49:14;;;;;;;23.90;15.20;;;;;;;12.80;89.03;100626.98;217415;1288;139207;-86
2023/03/21 10:54:19;;;;;;;24.10;14.90;;;;;;;12.89;88.87;100624.40;217759;1289;139885;-87
2023/03/21 10:59:22;;;;;;;24.80;14.70;;;;;;;12.90;88.85;100630.17;217304;1289;139303;-86
2023/03/21 11:04:28;;;;;;;26.90;15.30;;;;;;;13.07;88.50;100626.96;217816;1288;140845;-87
2023/03/21 11:09:44;;;;;;;25.30;15.70;;;;;;;13.17;87.02;100620.45;217204;1289;139936;-88
2023/03/21 11:14:48;;;;;;;35.20;17.70;;;;;;;13.33;86.03;100616.40;217756;1292;139463;-87
2023/03/21 11:19:52;;;;;;;25.50;15.90;;;;;;;13.45;84.74;100616.43;217326;1293;139947;-87
2023/03/21 11:24:58;;;;;;;22.90;14.40;;;;;;;13.48;84.09;100612.41;217911;1291;107606;-88
2023/03/21 11:30:00;;;;;;;21.20;13.90;;;;;;;13.66;83.64;100608.26;217436;1289;139452;-86
2023/03/21 11:35:06;;;;;;;30.20;17.30;;;;;;;13.83;83.01;100601.87;217745;1291;139380;-87
2023/03/21 11:40:19;;;;;;;31.20;18.20;;;;;;;14.01;82.39;100596.96;217235;1289;140413;-88
2023/03/21 11:45:25;;;;;;;37.00;20.00;;;;;;;14.16;80.56;100590.09;217864;1294;140336;-87
2023/03/21 11:50:43;;;;;;;33.90;18.90;;;;;;;13.99;79.29;100586.52;217231;1291;139452;-86
2023/03/21 11:55:49;;;;;;;23.80;15.70;;;;;;;14.15;80.90;100580.28;217832;1289;139354;-87
2023/03/21 12:01:11;;;;;;;25.40;15.60;;;;;;;14.46;79.41;100575.83;217315;1292;139799;-87
2023/03/21 12:06:30;;;;;;;31.20;17.20;;;;;;;14.61;76.22;100570.55;217845;1289;139475;-86
2023/03/21 12:11:54;;;;;;;24.50;15.40;;;;;;;14.47;76.63;100568.70;217375;1288;139331;-88
2023/03/21 12:17:12;;;;;;;20.80;14.60;;;;;;;14.67;76.44;100569.52;217857;1293;139725;-87
2023/03/21 12:22:47;;;;;;;23.00;14.10;;;;;;;14.75;76.12;100570.19;217353;1288;139416;-90
2023/03/21 12:28:24;;;;;;;20.20;14.00;;;;;;;14.73;75.21;100566.58;217905;1288;139926;-87
2023/03/21 12:33:47;;;;;;;19.80;13.50;;;;;;;14.64;73.20;100563.58;217314;1289;139406;-89
2023/03/21 12:39:03;;;;;;;26.40;12.80;;;;;;;14.39;73.03;100559.70;217298;1289;139571;-88
2023/03/21 12:44:11;;;;;;;19.60;12.30;;;;;;;14.26;72.42;100553.00;217875;1292;140227;-87
2023/03/21 12:49:17;;;;;;;20.50;12.10;;;;;;;14.23;73.77;100548.41;217452;1288;139926;-88
2023/03/21 12:54:33;;;;;;;;;;;;;;;14.19;72.42;100545.95;217886;1294;138832;-87
2023/03/21 12:59:40;;;;;;;19.00;11.50;;;;;;;14.13;73.52;100537.10;217350;1293;125609;-87
2023/03/21 13:04:59;;;;;;;19.30;11.30;;;;;;;14.31;74.43;100529.81;217974;1289;139324;-87
2023/03/21 13:10:01;;;;;;;17.00;11.40;;;;;;;14.43;73.48;100526.14;217416;1292;139290;-86
2023/03/21 13:15:32;;;;;;;22.50;12.20;;;;;;;14.49;72.52;100524.30;217974;1289;139828;-87
2023/03/21 13:20:50;;;;;;;18.40;10.70;;;;;;;14.65;74.74;100517.76;217407;1290;139668;-86
2023/03/21 13:25:54;;;;;;;21.10;13.70;;;;;;;14.86;72.66;100512.68;217973;1288;139180;-86
2023/03/21 13:31:17;;;;;;;21.30;14.60;;;;;;;14.83;72.68;100507.38;217555;1288;139984;-86
2023/03/21 13:36:24;;;;;;;24.90;15.30;;;;;;;14.83;71.67;100502.16;217976;1288;139926;-87
2023/03/21 13:41:34;;;;;;;26.20;16.20;;;;;;;14.86;73.18;100496.84;217367;1292;139671;-87
2023/03/21 13:46:43;;;;;;;25.20;16.00;;;;;;;14.83;70.64;100492.42;217930;1289;139028;-87
2023/03/21 13:51:52;;;;;;;23.90;15.90;;;;;;;14.51;71.24;100491.05;217414;1289;139777;-87
2023/03/21 13:56:58;;;;;;;22.40;14.70;;;;;;;14.30;71.99;100493.05;217984;1288;139049;-86
2023/03/21 14:02:22;;;;;;;26.40;16.20;;;;;;;14.19;72.38;100489.89;217400;1289;138674;-87
2023/03/21 14:07:27;;;;;;;22.70;13.60;;;;;;;13.93;71.86;100490.40;217830;1292;139147;-86
2023/03/21 14:12:33;;;;;;;22.70;14.90;;;;;;;13.69;72.84;100487.17;217516;1289;139569;-90
2023/03/21 14:17:34;;;;;;;;;;;;;;;13.60;73.13;100483.23;217930;1288;138385;-86
2023/03/21 14:22:35;;;;;;;22.80;13.70;;;;;;;13.61;74.15;100476.83;217433;1289;125265;-86
2023/03/21 14:27:36;;;;;;;25.90;16.20;;;;;;;13.63;73.73;100472.02;217924;1288;138838;-87
2023/03/21 14:32:37;;;;;;;29.80;17.90;;;;;;;13.49;74.28;100466.34;217372;1289;140482;-89
2023/03/21 14:37:40;;;;;;;26.50;16.50;;;;;;;13.46;74.27;100459.70;217857;1291;139185;-91
2023/03/21 14:42:45;;;;;;;26.20;16.40;;;;;;;13.30;73.82;100458.42;217489;1289;139506;-86
2023/03/21 14:47:55;;;;;;;27.90;17.90;;;;;;;13.18;75.21;100449.80;217762;1291;139461;-88
2023/03/21 14:52:57;;;;;;;28.70;18.30;;;;;;;13.15;75.17;100448.40;217361;1289;139426;-88
2023/03/21 14:57:58;;;;;;;27.00;16.20;;;;;;;12.96;75.06;100448.98;217864;1289;140879;-87
2023/03/21 15:02:59;;;;;;;27.50;16.90;;;;;;;12.85;76.24;100452.66;217363;1288;140522;-87
2023/03/21 15:08:06;;;;;;;26.90;17.00;;;;;;;12.92;76.96;100451.89;217980;1288;139478;-87
2023/03/21 15:13:22;;;;;;;29.50;18.20;;;;;;;12.95;77.00;100447.47;217207;1289;139561;-85
2023/03/21 15:18:29;;;;;;;28.00;16.90;;;;;;;12.89;76.50;100443.42;217867;1289;96614;-86
2023/03/21 15:23:34;;;;;;;31.20;17.50;;;;;;;12.78;76.81;100446.57;217292;1289;139727;-86
2023/03/21 15:28:35;;;;;;;25.80;15.60;;;;;;;12.70;76.75;100445.60;217819;1288;139272;-85
2023/03/21 15:33:36;;;;;;;33.20;18.40;;;;;;;12.56;77.27;100440.98;217418;1289;139802;-86
2023/03/21 15:38:43;;;;;;;41.00;22.00;;;;;;;12.50;77.78;100439.31;217825;1288;139260;-88
2023/03/21 15:43:59;;;;;;;30.20;18.50;;;;;;;12.48;78.03;100442.84;217512;1289;139148;-87
2023/03/21 15:49:18;;;;;;;27.50;17.10;;;;;;;12.46;78.43;100444.10;217331;1290;139229;-86
2023/03/21 15:54:31;;;;;;;28.60;16.90;;;;;;;12.44;78.65;100443.46;217719;1289;138838;-87
2023/03/21 15:59:35;;;;;;;31.60;17.80;;;;;;;12.33;78.41;100443.72;217258;1288;139667;-88
2023/03/21 16:04:55;;;;;;;27.80;17.20;;;;;;;12.29;78.53;100442.77;217639;1289;139414;-86
2023/03/21 16:10:00;;;;;;;25.00;18.30;;;;;;;12.24;79.18;100443.06;217056;1291;403964;-87
2023/03/21 16:15:01;;;;;;;30.40;17.40;;;;;;;12.22;79.28;100440.52;217817;1291;139831;-86
2023/03/21 16:20:05;;;;;;;28.90;17.00;;;;;;;12.16;79.26;100437.58;217453;1290;139395;-87
2023/03/21 16:25:05;;;;;;;31.40;18.80;;;;;;;12.00;78.99;100431.28;218056;1290;97314;-87
2023/03/21 16:30:07;;;;;;;33.60;18.30;;;;;;;11.83;79.52;100428.02;217297;1288;139251;-86
2023/03/21 16:35:07;;;;;;;31.70;18.80;;;;;;;11.73;80.33;100431.83;217814;1291;139850;-87
2023/03/21 16:40:33;;;;;;;32.00;19.50;;;;;;;11.65;80.71;100434.06;217386;1289;140143;-87
2023/03/21 16:45:34;;;;;;;32.50;20.10;;;;;;;11.56;81.04;100429.88;217785;1288;139415;-87
2023/03/21 16:50:39;;;;;;;28.20;18.60;;;;;;;11.50;81.34;100425.19;217393;1288;139385;-87
2023/03/21 16:55:40;;;;;;;30.20;17.60;;;;;;;11.43;81.88;100428.36;217931;1288;140103;-87
2023/03/21 17:00:41;;;;;;;36.20;20.20;;;;;;;11.40;82.40;100423.62;217733;1288;139320;-87
2023/03/21 17:05:42;;;;;;;31.20;19.50;;;;;;;11.37;82.46;100423.97;215277;1289;139016;-89
2023/03/21 17:10:43;;;;;;;36.30;20.80;;;;;;;11.29;82.68;100425.80;213653;1293;140012;-87
2023/03/21 17:15:43;;;;;;;41.00;25.50;;;;;;;11.21;83.12;100421.10;214376;1289;139252;-87
2023/03/21 17:20:43;;;;;;;39.50;23.20;;;;;;;11.12;83.63;100423.05;213771;1291;140048;-87
2023/03/21 17:25:44;;;;;;;35.40;21.70;;;;;;;11.02;84.02;100425.49;214062;1289;139202;-86
2023/03/21 17:30:44;;;;;;;35.80;22.00;;;;;;;10.95;84.26;100427.55;213863;1289;139825;-88
2023/03/21 17:35:45;;;;;;;43.80;22.40;;;;;;;10.89;84.39;100430.95;214260;1291;139108;-88
2023/03/21 17:40:45;;;;;;;35.70;21.00;;;;;;;10.84;84.77;100435.94;213568;1293;140035;-86
2023/03/21 17:45:46;;;;;;;41.90;25.30;;;;;;;10.78;85.25;100435.33;213991;1291;139790;-88
2023/03/21 17:50:46;;;;;;;47.00;28.40;;;;;;;10.73;85.69;100437.23;213488;1289;140086;-88
2023/03/21 17:55:47;;;;;;;37.50;24.10;;;;;;;10.67;85.79;100437.33;214316;1289;139191;-89
2023/03/21 18:00:47;;;;;;;38.60;23.30;;;;;;;10.60;86.23;100432.46;214255;1291;139998;-89
2023/03/21 18:05:47;;;;;;;42.70;25.20;;;;;;;10.53;86.74;100440.65;214383;1289;140931;-88
2023/03/21 18:10:48;;;;;;;43.60;26.10;;;;;;;10.51;86.92;100443.05;213858;1293;139840;-89
2023/03/21 18:15:49;;;;;;;42.90;26.70;;;;;;;10.49;87.24;100441.69;215099;1293;139448;-87
2023/03/21 18:20:50;;;;;;;45.30;26.20;;;;;;;10.48;87.50;100447.34;213627;1291;139849;-89
2023/03/21 18:25:51;;;;;;;45.10;26.90;;;;;;;10.47;87.55;100449.14;214488;1293;139783;-88
2023/03/21 18:30:52;;;;;;;45.20;26.80;;;;;;;10.47;87.80;100450.00;213927;1289;139962;-87
2023/03/21 18:35:53;;;;;;;45.10;25.90;;;;;;;10.45;88.00;100446.69;214297;1290;140353;-87
2023/03/21 18:40:54;;;;;;;35.70;21.90;;;;;;;10.44;87.95;100441.26;213703;1288;141393;-91
2023/03/21 18:45:55;;;;;;;35.80;21.70;;;;;;;10.41;88.19;100432.80;214937;1288;140379;-90
2023/03/21 18:50:56;;;;;;;34.50;21.40;;;;;;;10.40;88.25;100428.39;213696;1288;139637;-88
2023/03/21 18:55:56;;;;;;;44.00;23.90;;;;;;;10.39;88.58;100430.41;214122;1294;139256;-89
2023/03/21 19:00:57;;;;;;;45.90;27.20;;;;;;;10.38;88.67;100431.58;214001;1294;139340;-90
2023/03/21 19:05:59;;;;;;;50.80;28.80;;;;;;;10.33;88.68;100434.52;214331;1288;139205;-91
2023/03/21 19:10:59;;;;;;;47.10;26.70;;;;;;;10.30;88.93;100432.11;213630;1291;140915;-89
2023/03/21 19:16:00;;;;;;;40.00;23.60;;;;;;;10.28;89.23;100431.63;214166;1289;139933;-89
2023/03/21 19:21:01;;;;;;;43.60;23.80;;;;;;;10.26;89.40;100429.46;213518;1288;139625;-89
2023/03/21 19:26:02;;;;;;;42.00;26.00;;;;;;;10.23;89.61;100425.19;214152;1290;139209;-90
2023/03/21 19:31:05;;;;;;;42.10;25.90;;;;;;;10.22;89.92;100418.89;213626;1289;139540;-89
2023/03/21 19:36:06;;;;;;;46.60;24.30;;;;;;;10.20;89.90;100412.90;213943;1292;139145;-89
2023/03/21 19:41:06;;;;;;;44.60;26.70;;;;;;;10.19;90.23;100404.94;213494;1291;139189;-90
2023/03/21 19:46:07;;;;;;;49.40;29.00;;;;;;;10.17;90.59;100399.96;214057;1289;139290;-90
2023/03/21 19:51:09;;;;;;;56.10;32.50;;;;;;;10.14;90.71;100400.56;213678;1291;140527;-89
2023/03/21 19:56:11;;;;;;;53.80;31.80;;;;;;;10.12;91.02;100393.63;214014;1292;139233;-89
2023/03/21 20:01:12;;;;;;;61.60;33.50;;;;;;;10.10;91.06;100392.19;213722;1291;139439;-89
2023/03/21 20:06:13;;;;;;;62.30;33.00;;;;;;;10.09;91.48;100389.27;214000;1289;139225;-88
2023/03/21 20:11:14;;;;;;;63.40;34.30;;;;;;;10.06;91.67;100391.98;213633;1292;139131;-90
2023/03/21 20:16:18;;;;;;;65.40;35.60;;;;;;;10.02;91.99;100397.00;214180;1291;139422;-90
2023/03/21 20:21:19;;;;;;;62.00;35.50;;;;;;;10.01;92.10;100396.13;213561;1290;139692;-88
2023/03/21 20:26:20;;;;;;;66.90;37.50;;;;;;;10.00;92.46;100397.91;214076;1289;139227;-90
2023/03/21 20:31:22;;;;;;;64.70;35.80;;;;;;;9.97;92.61;100400.86;213657;1288;140873;-88
2023/03/21 20:36:23;;;;;;;67.40;34.80;;;;;;;9.94;92.98;100402.39;213984;1291;139696;-88
2023/03/21 20:41:24;;;;;;;65.30;37.30;;;;;;;9.92;92.92;100399.85;213489;1294;139545;-87
2023/03/21 20:46:24;;;;;;;70.10;38.60;;;;;;;9.89;93.35;100401.55;214176;1288;139220;-90
2023/03/21 20:51:25;;;;;;;74.90;38.70;;;;;;;9.84;93.79;100400.54;213676;1288;139806;-88
2023/03/21 20:56:25;;;;;;;66.20;38.20;;;;;;;9.81;94.02;100397.50;214031;1288;139045;-91
2023/03/21 21:01:27;;;;;;;67.00;36.30;;;;;;;9.80;94.23;100398.74;213524;1289;138643;-88
2023/03/21 21:06:28;;;;;;;77.70;41.80;;;;;;;9.77;94.41;100397.45;214425;1289;98101;-91
2023/03/21 21:11:29;;;;;;;67.70;37.60;;;;;;;9.76;94.69;100398.77;213384;1289;140028;-90
2023/03/21 21:16:30;;;;;;;67.50;37.30;;;;;;;9.74;94.75;100392.48;213680;1292;138991;-90
2023/03/21 21:21:31;;;;;;;66.70;36.30;;;;;;;9.74;94.78;100384.45;213522;1288;139778;-87
2023/03/21 21:26:32;;;;;;;72.30;37.00;;;;;;;9.72;95.09;100371.70;214189;1290;139474;-89
2023/03/21 21:31:33;;;;;;;68.10;36.20;;;;;;;9.68;94.87;100358.78;213480;1289;139394;-88
2023/03/21 21:36:34;;;;;;;71.60;38.00;;;;;;;9.66;95.10;100362.99;214312;1289;98339;-88
2023/03/21 21:41:34;;;;;;;66.70;35.00;;;;;;;9.64;95.09;100362.65;213554;1291;139243;-87
2023/03/21 21:46:35;;;;;;;66.50;33.80;;;;;;;9.63;95.32;100360.60;214175;1291;139547;-89
2023/03/21 21:51:35;;;;;;;65.70;34.30;;;;;;;9.60;95.47;100357.58;213569;1288;139426;-88
2023/03/21 21:56:36;;;;;;;66.00;34.90;;;;;;;9.56;95.60;100353.52;214501;1289;139164;-88
2023/03/21 22:01:37;;;;;;;60.10;32.20;;;;;;;9.54;95.79;100352.23;213767;1289;139853;-89
2023/03/21 22:06:38;;;;;;;59.70;30.10;;;;;;;9.51;95.87;100357.85;214190;1289;97957;-87
2023/03/21 22:11:38;;;;;;;61.50;35.30;;;;;;;9.51;95.96;100352.50;214881;1289;139127;-88
2023/03/21 22:16:39;;;;;;;65.00;33.80;;;;;;;9.51;96.15;100348.73;214450;1294;139651;-89
2023/03/21 22:21:40;;;;;;;64.10;34.40;;;;;;;9.51;96.20;100345.59;213939;1291;139009;-87
2023/03/21 22:26:40;;;;;;;63.20;32.00;;;;;;;9.50;96.31;100337.95;214374;1291;139219;-86
2023/03/21 22:31:41;;;;;;;58.70;32.40;;;;;;;9.49;96.36;100324.21;214455;1289;139292;-88
2023/03/21 22:36:45;;;;;;;56.60;31.20;;;;;;;9.47;96.54;100321.52;214591;1289;97874;-89